首页
METAR-TAF:

METAR-TAF

机场 :

夏洛特, 北卡罗来纳州, 美国

夏洛特道格拉斯國際機場

纬度: 35-12-48N, 经度: 080-56-55W, 海拔: 228米

当前天气观测

该预报发布于28分钟前的13:52 UTC
风速10节,风向,有时为17节阵风
温度 16°C
湿度 100%
气压 1013 hPa
能見度: 2.8公里
阴天层高于500英尺
轻雾

METAR: KCLT 241352Z 09010G17KT 1 3/4SM R18C/6000VP6000FT BR OVC005 16/16 A2991 RMK AO2 RAB1254E39 SLP125 P0000 T01610161

时间: 10:20 (14:20 UTC)

预报

该预报发布于12分钟前的14:08 UTC
预报有效从24日的 14点(UTC)到 25日的 18点(UTC)
风速10节,风向
能見度: 4.8公里
阴天层高于500英尺
轻雾
短暂存在
从 24日的 14点(UTC)到 24日的 17点(UTC)
能見度: 2.4公里
阴天层高于300英尺
小阵雨, 轻雾
从 24日的 1700点(UTC)
风速5节,风向东转东北
能見度: 1.6公里
阴天层高于1200英尺
阵雨
短暂存在
从 24日的 19点(UTC)到 24日的 23点(UTC)
能見度: 1.6公里
阴天层高于700英尺, 积雨云.
雷暴, 雨
从 24日的 2300点(UTC)
风速5节,风向
能見度: 10公里
阴天层高于1500英尺
附近有阵雨
从 25日的 0300点(UTC)
风速5节,风向西北
能見度: 1.6公里
阴天层高于700英尺
轻雾
从 25日的 1200点(UTC)
风速4节,风向西转西北
能見度: 10公里
散云层高于2000英尺
多云层高于5000英尺

TAF: KCLT 241408Z 2414/2518 08010KT 3SM BR OVC005 TEMPO 2414/2417 1 1/2SM -SHRA BR OVC003 FM241700 06005KT 4SM SHRA OVC012 TEMPO 2419/2423 2SM TSRA OVC007CB FM242300 01005KT P6SM VCSH OVC015 FM250300 31005KT 5SM BR OVC007 FM251200 29004KT P6SM SCT020 BKN050

超过4000个机场的气象观测和天气预报(METAR&TAF报告)。

可查询的气象台以黄色和红色小点在地图上表示。

将鼠标移到小点上方,可查看气象台名称。

然后点击查看天气观测和预报。

如需切换地图:点击带黑十字的绿色按钮放大地图;点击带横线的绿色按钮缩小地图;或者点击绿色箭头查看邻近地区的地图。


METAR-TAF: